createdAt,value
2022-10-24T00:01:19.511Z,96635.00
2022-10-24T00:03:47.416Z,96643.00
2022-10-24T00:06:14.613Z,96636.00
2022-10-24T00:08:42.692Z,96631.00
2022-10-24T00:11:16.342Z,96635.00
2022-10-24T00:13:44.072Z,96638.00
2022-10-24T00:16:11.855Z,96631.00
2022-10-24T00:18:39.181Z,96634.00
2022-10-24T00:21:06.507Z,96638.00
2022-10-24T00:23:33.863Z,96637.00
2022-10-24T00:26:04.271Z,96633.00
2022-10-24T00:28:36.241Z,96633.00
2022-10-24T00:31:04.072Z,96638.00
2022-10-24T00:33:31.894Z,96635.00
2022-10-24T00:35:59.064Z,96636.00
2022-10-24T00:38:26.266Z,96633.00
2022-10-24T00:40:53.514Z,96629.00
2022-10-24T00:43:23.884Z,96626.00
2022-10-24T00:45:59.007Z,96636.00
2022-10-24T00:48:46.373Z,96639.00
2022-10-24T00:51:27.235Z,96628.00
2022-10-24T00:54:04.135Z,96631.00
2022-10-24T00:56:34.668Z,96636.00
2022-10-24T00:59:04.225Z,96637.00
2022-10-24T01:01:31.873Z,96642.00
2022-10-24T01:03:59.066Z,96640.00
2022-10-24T01:06:50.076Z,96640.00
2022-10-24T01:09:30.357Z,96631.00
2022-10-24T01:12:31.382Z,96626.00
2022-10-24T01:15:36.106Z,96628.00
2022-10-24T01:18:14.343Z,96637.00
2022-10-24T01:21:09.341Z,96644.00
2022-10-24T01:23:48.602Z,96645.00
2022-10-24T01:26:39.777Z,96643.00
2022-10-24T01:29:23.066Z,96642.00
2022-10-24T01:31:55.429Z,96637.00
2022-10-24T01:34:42.784Z,96636.00
2022-10-24T01:37:51.781Z,96630.00
2022-10-24T01:40:35.194Z,96633.00
2022-10-24T01:43:08.878Z,96646.00
2022-10-24T01:45:38.112Z,96640.00
2022-10-24T01:48:09.631Z,96633.00
2022-10-24T01:50:38.511Z,96634.00
2022-10-24T01:53:06.235Z,96632.00
2022-10-24T01:55:33.703Z,96627.00
2022-10-24T01:58:01.354Z,96619.00
2022-10-24T02:00:28.704Z,96628.00
2022-10-24T02:03:02.263Z,96633.00
2022-10-24T02:05:42.578Z,96624.00
2022-10-24T02:08:14.794Z,96618.00
2022-10-24T02:10:50.419Z,96617.00
2022-10-24T02:13:35.034Z,96612.00
2022-10-24T02:16:03.536Z,96608.00
2022-10-24T02:18:31.374Z,96605.00
2022-10-24T02:21:17.238Z,96601.00
2022-10-24T02:24:01.294Z,96594.00
2022-10-24T02:26:58.368Z,96601.00
2022-10-24T02:29:36.444Z,96586.00
2022-10-24T02:32:07.574Z,96584.00
2022-10-24T02:34:35.541Z,96584.00
2022-10-24T02:37:04.064Z,96593.00
2022-10-24T02:39:33.126Z,96598.00
2022-10-24T02:42:00.683Z,96616.00
2022-10-24T02:44:29.643Z,96621.00
2022-10-24T02:46:59.701Z,96616.00
2022-10-24T02:49:26.974Z,96598.00
2022-10-24T02:51:54.518Z,96600.00
2022-10-24T02:54:21.694Z,96590.00
2022-10-24T02:56:52.346Z,96587.00
2022-10-24T02:59:19.471Z,96582.00
2022-10-24T03:01:46.647Z,96578.00
2022-10-24T03:04:13.806Z,96590.00
2022-10-24T03:06:41.022Z,96580.00
2022-10-24T03:09:08.247Z,96574.00
2022-10-24T03:11:35.453Z,96587.00
2022-10-24T03:14:02.608Z,96595.00
2022-10-24T03:16:29.742Z,96593.00
2022-10-24T03:18:56.893Z,96597.00
2022-10-24T03:21:24.196Z,96607.00
2022-10-24T03:23:51.386Z,96610.00
2022-10-24T03:26:18.576Z,96619.00
2022-10-24T03:28:45.825Z,96618.00
2022-10-24T03:31:13.025Z,96609.00
2022-10-24T03:33:40.330Z,96619.00
2022-10-24T03:36:07.784Z,96622.00
2022-10-24T03:38:34.941Z,96612.00
2022-10-24T03:41:02.116Z,96631.00
2022-10-24T03:43:29.237Z,96637.00
2022-10-24T03:45:56.369Z,96641.00
2022-10-24T03:48:23.513Z,96641.00
2022-10-24T03:50:50.659Z,96656.00
2022-10-24T03:53:17.949Z,96656.00
2022-10-24T03:55:45.092Z,96673.00
2022-10-24T03:58:12.261Z,96650.00
2022-10-24T04:00:40.536Z,96659.00
2022-10-24T04:03:09.716Z,96665.00
2022-10-24T04:05:37.085Z,96678.00
2022-10-24T04:08:04.387Z,96661.00
2022-10-24T04:10:31.515Z,96664.00
2022-10-24T04:12:58.651Z,96638.00
2022-10-24T04:15:26.021Z,96638.00
2022-10-24T04:17:53.181Z,96631.00
2022-10-24T04:20:22.391Z,96629.00
2022-10-24T04:22:50.086Z,96625.00
2022-10-24T04:25:17.849Z,96636.00
2022-10-24T04:27:45.515Z,96638.00
2022-10-24T04:30:16.715Z,96633.00
2022-10-24T04:32:44.854Z,96645.00
2022-10-24T04:35:12.279Z,96635.00
2022-10-24T04:37:39.466Z,96628.00
2022-10-24T04:40:07.332Z,96638.00
2022-10-24T04:42:34.521Z,96632.00
2022-10-24T04:45:01.734Z,96619.00
2022-10-24T04:47:28.912Z,96622.00
2022-10-24T04:49:56.057Z,96623.00
2022-10-24T04:52:23.260Z,96631.00
2022-10-24T04:54:50.442Z,96629.00
2022-10-24T04:57:17.607Z,96627.00
2022-10-24T04:59:44.849Z,96632.00
2022-10-24T05:02:12.255Z,96629.00
2022-10-24T05:04:39.425Z,96625.00
2022-10-24T05:07:06.565Z,96643.00
2022-10-24T05:09:33.880Z,96635.00
2022-10-24T05:12:02.128Z,96642.00
2022-10-24T05:14:29.371Z,96654.00
2022-10-24T05:16:56.518Z,96659.00
2022-10-24T05:19:23.650Z,96651.00
2022-10-24T05:21:50.788Z,96650.00
2022-10-24T05:24:17.930Z,96658.00
2022-10-24T05:26:45.068Z,96664.00
2022-10-24T05:29:12.213Z,96663.00
2022-10-24T05:31:39.415Z,96664.00
2022-10-24T05:34:06.568Z,96656.00
2022-10-24T05:36:33.725Z,96662.00
2022-10-24T05:39:00.856Z,96657.00
2022-10-24T05:41:28.001Z,96643.00
2022-10-24T05:43:55.137Z,96645.00
2022-10-24T05:46:22.300Z,96639.00
2022-10-24T05:48:49.459Z,96629.00
2022-10-24T05:51:16.608Z,96629.00
2022-10-24T05:53:43.755Z,96626.00
2022-10-24T05:56:10.915Z,96654.00
2022-10-24T05:58:38.091Z,96643.00
2022-10-24T06:01:05.399Z,96646.00
2022-10-24T06:03:32.592Z,96645.00
2022-10-24T06:06:04.695Z,96642.00
2022-10-24T06:08:33.187Z,96656.00
2022-10-24T06:11:00.354Z,96659.00
2022-10-24T06:13:28.358Z,96649.00
2022-10-24T06:15:57.624Z,96641.00
2022-10-24T06:18:24.850Z,96643.00
2022-10-24T06:20:54.139Z,96643.00
2022-10-24T06:23:24.067Z,96649.00
2022-10-24T06:25:51.208Z,96634.00
2022-10-24T06:28:18.334Z,96633.00
2022-10-24T06:30:48.219Z,96647.00
2022-10-24T06:33:15.395Z,96650.00
2022-10-24T06:35:42.567Z,96652.00
2022-10-24T06:38:09.793Z,96671.00
2022-10-24T06:40:42.503Z,96674.00
2022-10-24T06:43:10.125Z,96692.00
2022-10-24T06:45:38.760Z,96689.00
2022-10-24T06:48:06.448Z,96689.00
2022-10-24T06:50:33.601Z,96707.00
2022-10-24T06:53:00.739Z,96695.00
2022-10-24T06:55:27.924Z,96699.00
2022-10-24T06:57:55.130Z,96685.00
2022-10-24T07:00:22.339Z,96686.00
2022-10-24T07:02:49.526Z,96691.00
2022-10-24T07:05:16.806Z,96695.00
2022-10-24T07:07:44.735Z,96695.00
2022-10-24T07:10:15.347Z,96702.00
2022-10-24T07:12:43.509Z,96710.00
2022-10-24T07:15:11.938Z,96713.00
2022-10-24T07:17:48.165Z,96708.00
2022-10-24T07:20:15.702Z,96709.00
2022-10-24T07:22:45.430Z,96696.00
2022-10-24T07:25:12.859Z,96698.00
2022-10-24T07:27:40.257Z,96707.00
2022-10-24T07:30:08.517Z,96704.00
2022-10-24T07:32:35.882Z,96699.00
2022-10-24T07:35:03.084Z,96694.00
2022-10-24T07:37:30.222Z,96683.00
2022-10-24T07:39:57.388Z,96684.00
2022-10-24T07:42:24.600Z,96701.00
2022-10-24T07:44:51.735Z,96711.00
2022-10-24T07:47:18.880Z,96707.00
2022-10-24T07:49:46.016Z,96699.00
2022-10-24T07:52:13.167Z,96701.00
2022-10-24T07:54:40.295Z,96698.00
2022-10-24T07:57:07.810Z,96696.00
2022-10-24T07:59:42.062Z,96700.00
2022-10-24T08:02:11.959Z,96716.00
2022-10-24T08:04:39.502Z,96703.00
2022-10-24T08:07:13.289Z,96693.00
2022-10-24T08:09:43.279Z,96684.00
2022-10-24T08:12:10.882Z,96692.00
2022-10-24T08:14:41.571Z,96692.00
2022-10-24T08:17:08.900Z,96707.00
2022-10-24T08:19:36.449Z,96698.00
2022-10-24T08:22:04.294Z,96702.00
2022-10-24T08:24:31.434Z,96698.00
2022-10-24T08:26:59.147Z,96697.00
2022-10-24T08:29:26.301Z,96706.00
2022-10-24T08:31:56.652Z,96711.00
2022-10-24T08:34:24.106Z,96714.00
2022-10-24T08:36:51.488Z,96714.00
2022-10-24T08:39:19.014Z,96723.00
2022-10-24T08:41:55.573Z,96721.00
2022-10-24T08:44:31.684Z,96742.00
2022-10-24T08:47:20.574Z,96739.00
2022-10-24T08:50:10.170Z,96742.00
2022-10-24T08:52:55.739Z,96735.00
2022-10-24T08:55:49.645Z,96744.00
2022-10-24T08:58:33.844Z,96739.00
2022-10-24T09:01:03.687Z,96751.00
2022-10-24T09:03:55.591Z,96761.00
2022-10-24T09:06:25.774Z,96762.00
2022-10-24T09:09:06.273Z,96764.00
2022-10-24T09:11:52.119Z,96759.00
2022-10-24T09:14:27.811Z,96758.00
2022-10-24T09:17:01.506Z,96761.00
2022-10-24T09:19:30.687Z,96758.00
2022-10-24T09:21:59.167Z,96765.00
2022-10-24T09:24:41.398Z,96762.00
2022-10-24T09:27:18.027Z,96764.00
2022-10-24T09:29:45.422Z,96777.00
2022-10-24T09:32:22.314Z,96776.00
2022-10-24T09:34:50.221Z,96772.00
2022-10-24T09:37:46.260Z,96779.00
2022-10-24T09:40:34.367Z,96783.00
2022-10-24T09:43:17.809Z,96793.00
2022-10-24T09:46:04.527Z,96800.00
2022-10-24T09:48:38.126Z,96799.00
2022-10-24T09:51:06.792Z,96792.00
2022-10-24T09:53:57.537Z,96805.00
2022-10-24T09:56:39.881Z,96806.00
2022-10-24T09:59:31.960Z,96799.00
2022-10-24T10:02:12.809Z,96805.00
2022-10-24T10:04:41.156Z,96826.00
2022-10-24T10:07:14.026Z,96811.00
2022-10-24T10:09:56.698Z,96826.00
2022-10-24T10:12:34.517Z,96815.00
2022-10-24T10:15:04.105Z,96821.00
2022-10-24T10:17:31.698Z,96824.00
2022-10-24T10:19:59.259Z,96822.00
2022-10-24T10:22:33.150Z,96823.00
2022-10-24T10:25:00.886Z,96832.00
2022-10-24T10:27:41.741Z,96825.00
2022-10-24T10:30:11.941Z,96827.00
2022-10-24T10:32:48.908Z,96825.00
2022-10-24T10:35:33.598Z,96829.00
2022-10-24T10:38:44.958Z,96837.00
2022-10-24T10:41:47.585Z,96836.00
2022-10-24T10:44:52.365Z,96840.00
2022-10-24T10:47:35.472Z,96837.00
2022-10-24T10:50:15.262Z,96828.00
2022-10-24T10:52:48.722Z,96837.00
2022-10-24T10:55:39.780Z,96836.00
2022-10-24T10:58:21.898Z,96831.00
2022-10-24T11:01:10.595Z,96834.00
2022-10-24T11:03:45.968Z,96832.00
2022-10-24T11:06:35.061Z,96824.00
2022-10-24T11:09:26.399Z,96828.00
2022-10-24T11:11:55.748Z,96825.00
2022-10-24T11:14:35.665Z,96825.00
2022-10-24T11:17:25.342Z,96829.00
2022-10-24T11:20:15.217Z,96834.00
2022-10-24T11:22:50.351Z,96814.00
2022-10-24T11:25:24.335Z,96817.00
2022-10-24T11:28:26.157Z,96810.00
2022-10-24T11:30:57.319Z,96798.00
2022-10-24T11:33:42.930Z,96809.00
2022-10-24T11:36:26.916Z,96809.00
2022-10-24T11:39:06.075Z,96802.00
2022-10-24T11:41:48.831Z,96797.00
2022-10-24T11:44:27.335Z,96793.00
2022-10-24T11:47:26.317Z,96795.00
2022-10-24T11:50:07.268Z,96783.00
2022-10-24T11:52:40.264Z,96790.00
2022-10-24T11:55:27.154Z,96784.00
2022-10-24T11:57:59.373Z,96784.00
2022-10-24T12:00:33.872Z,96777.00
2022-10-24T12:03:22.252Z,96776.00
2022-10-24T12:05:56.928Z,96769.00
2022-10-24T12:08:29.862Z,96768.00
2022-10-24T12:11:20.348Z,96775.00
2022-10-24T12:14:24.753Z,96776.00
2022-10-24T12:16:57.831Z,96762.00
2022-10-24T12:19:25.898Z,96769.00
2022-10-24T12:21:55.788Z,96767.00
2022-10-24T12:24:38.880Z,96769.00
2022-10-24T12:27:08.908Z,96770.00
2022-10-24T12:29:37.666Z,96771.00
2022-10-24T12:32:37.235Z,96771.00
2022-10-24T12:35:30.513Z,96780.00
2022-10-24T12:37:58.569Z,96780.00
2022-10-24T12:41:09.525Z,96787.00
2022-10-24T12:43:38.845Z,96796.00
2022-10-24T12:46:23.200Z,96784.00
2022-10-24T12:48:59.664Z,96787.00
2022-10-24T12:51:42.389Z,96771.00
2022-10-24T12:54:12.212Z,96773.00
2022-10-24T12:56:52.256Z,96763.00
2022-10-24T12:59:47.398Z,96757.00
2022-10-24T13:02:20.478Z,96758.00
2022-10-24T13:04:59.915Z,96753.00
2022-10-24T13:07:51.503Z,96756.00
2022-10-24T13:10:43.798Z,96753.00
2022-10-24T13:13:32.165Z,96747.00
2022-10-24T13:16:17.895Z,96760.00
2022-10-24T13:18:53.979Z,96767.00
2022-10-24T13:21:51.548Z,96769.00
2022-10-24T13:24:19.893Z,96762.00
2022-10-24T13:27:11.896Z,96759.00
2022-10-24T13:29:41.108Z,96756.00
2022-10-24T13:32:08.215Z,96753.00
2022-10-24T13:34:54.599Z,96753.00
2022-10-24T13:37:42.614Z,96747.00
2022-10-24T13:40:32.353Z,96750.00
2022-10-24T13:43:06.801Z,96742.00
2022-10-24T13:45:52.428Z,96736.00
2022-10-24T13:48:22.205Z,96744.00
2022-10-24T13:51:28.039Z,96728.00
2022-10-24T13:54:11.196Z,96742.00
2022-10-24T13:56:40.535Z,96740.00
2022-10-24T13:59:40.150Z,96742.00
2022-10-24T14:02:22.002Z,96758.00
2022-10-24T14:04:51.901Z,96759.00
2022-10-24T14:07:28.567Z,96765.00
2022-10-24T14:10:22.003Z,96757.00
2022-10-24T14:12:51.959Z,96762.00
2022-10-24T14:15:21.746Z,96769.00
2022-10-24T14:18:15.294Z,96768.00
2022-10-24T14:20:42.783Z,96778.00
2022-10-24T14:23:40.274Z,96773.00
2022-10-24T14:26:12.195Z,96767.00
2022-10-24T14:28:58.931Z,96757.00
2022-10-24T14:31:30.984Z,96783.00
2022-10-24T14:33:58.781Z,96791.00
2022-10-24T14:36:29.947Z,96787.00
2022-10-24T14:38:59.139Z,96771.00
2022-10-24T14:41:59.902Z,96778.00
2022-10-24T14:44:29.581Z,96781.00
2022-10-24T14:47:28.764Z,96791.00
2022-10-24T14:50:44.971Z,96793.00
2022-10-24T14:53:26.208Z,96808.00
2022-10-24T14:55:53.985Z,96815.00
2022-10-24T14:58:31.713Z,96804.00
2022-10-24T15:01:00.021Z,96777.00
2022-10-24T15:03:28.362Z,96771.00
2022-10-24T15:06:08.464Z,96785.00
2022-10-24T15:08:38.400Z,96796.00
2022-10-24T15:11:24.483Z,96788.00
2022-10-24T15:14:06.140Z,96789.00
2022-10-24T15:16:37.859Z,96783.00
2022-10-24T15:19:06.946Z,96786.00
2022-10-24T15:21:39.275Z,96777.00
2022-10-24T15:24:07.127Z,96778.00
2022-10-24T15:26:40.401Z,96785.00
2022-10-24T15:29:21.954Z,96774.00
2022-10-24T15:31:51.185Z,96772.00
2022-10-24T15:34:20.565Z,96769.00
2022-10-24T15:36:49.211Z,96759.00
2022-10-24T15:39:18.426Z,96762.00
2022-10-24T15:41:45.704Z,96768.00
2022-10-24T15:44:22.215Z,96754.00
2022-10-24T15:46:50.068Z,96753.00
2022-10-24T15:49:17.348Z,96741.00
2022-10-24T15:51:49.860Z,96734.00
2022-10-24T15:54:19.938Z,96736.00
2022-10-24T15:56:47.371Z,96735.00
2022-10-24T15:59:14.882Z,96754.00
2022-10-24T16:01:51.682Z,96762.00
2022-10-24T16:04:19.149Z,96767.00
2022-10-24T16:06:46.296Z,96769.00
2022-10-24T16:09:22.529Z,96772.00
2022-10-24T16:11:50.113Z,96785.00
2022-10-24T16:14:19.349Z,96786.00
2022-10-24T16:16:46.862Z,96790.00
2022-10-24T16:19:14.517Z,96794.00
2022-10-24T16:21:42.222Z,96797.00
2022-10-24T16:24:10.200Z,96805.00
2022-10-24T16:26:37.380Z,96798.00
2022-10-24T16:29:05.498Z,96804.00
2022-10-24T16:31:33.287Z,96806.00
2022-10-24T16:34:00.418Z,96799.00
2022-10-24T16:36:27.781Z,96798.00
2022-10-24T16:38:55.045Z,96799.00
2022-10-24T16:41:24.709Z,96801.00
2022-10-24T16:43:56.010Z,96801.00
2022-10-24T16:46:24.142Z,96805.00
2022-10-24T16:48:51.788Z,96807.00
2022-10-24T16:51:25.809Z,96807.00
2022-10-24T16:53:53.003Z,96816.00
2022-10-24T16:56:20.143Z,96812.00
2022-10-24T16:58:47.265Z,96813.00
2022-10-24T17:01:15.893Z,96820.00
2022-10-24T17:03:44.980Z,96820.00
2022-10-24T17:06:12.696Z,96818.00
2022-10-24T17:08:39.884Z,96821.00
2022-10-24T17:11:25.807Z,96823.00
2022-10-24T17:13:54.975Z,96830.00
2022-10-24T17:16:22.374Z,96823.00
2022-10-24T17:19:05.066Z,96840.00
2022-10-24T17:21:36.791Z,96835.00
2022-10-24T17:24:04.143Z,96838.00
2022-10-24T17:26:31.347Z,96837.00
2022-10-24T17:28:58.570Z,96844.00
2022-10-24T17:31:25.792Z,96847.00
2022-10-24T17:33:53.255Z,96851.00
2022-10-24T17:36:25.521Z,96856.00
2022-10-24T17:39:43.033Z,96859.00
2022-10-24T17:42:12.994Z,96849.00
2022-10-24T17:44:40.510Z,96862.00
2022-10-24T17:47:07.951Z,96859.00
2022-10-24T17:49:35.174Z,96853.00
2022-10-24T17:52:02.323Z,96860.00
2022-10-24T17:54:29.516Z,96843.00
2022-10-24T17:56:56.650Z,96860.00
2022-10-24T17:59:23.781Z,96848.00
2022-10-24T18:01:51.119Z,96844.00
2022-10-24T18:04:18.416Z,96854.00
2022-10-24T18:06:45.636Z,96864.00
2022-10-24T18:09:12.771Z,96867.00
2022-10-24T18:11:40.232Z,96873.00
2022-10-24T18:14:07.530Z,96876.00
2022-10-24T18:16:34.792Z,96883.00
2022-10-24T18:19:01.918Z,96887.00
2022-10-24T18:21:29.607Z,96892.00
2022-10-24T18:23:57.137Z,96908.00
2022-10-24T18:26:26.326Z,96896.00
2022-10-24T18:28:54.834Z,96903.00
2022-10-24T18:31:25.135Z,96903.00
2022-10-24T18:33:52.642Z,96906.00
2022-10-24T18:36:22.888Z,96928.00
2022-10-24T18:38:50.230Z,96927.00
2022-10-24T18:41:33.767Z,96921.00
2022-10-24T18:44:02.951Z,96913.00
2022-10-24T18:46:30.839Z,96915.00
2022-10-24T18:48:58.282Z,96907.00
2022-10-24T18:51:43.524Z,96910.00
2022-10-24T18:54:14.697Z,96911.00
2022-10-24T18:56:42.680Z,96910.00
2022-10-24T18:59:15.131Z,96904.00
2022-10-24T19:01:55.027Z,96906.00
2022-10-24T19:04:26.823Z,96910.00
2022-10-24T19:06:56.470Z,96936.00
2022-10-24T19:09:25.185Z,97033.00
2022-10-24T19:11:52.947Z,97153.00
2022-10-24T19:14:21.640Z,97102.00
2022-10-24T19:16:50.537Z,97079.00
2022-10-24T19:19:29.186Z,97051.00
2022-10-24T19:21:56.334Z,97044.00
2022-10-24T19:24:23.203Z,97055.00
2022-10-24T19:26:50.961Z,97061.00
2022-10-24T19:29:17.837Z,97058.00
2022-10-24T19:31:45.449Z,97039.00
2022-10-24T19:34:12.395Z,97026.00
2022-10-24T19:36:39.229Z,97040.00
2022-10-24T19:39:06.583Z,97043.00
2022-10-24T19:41:33.619Z,97041.00
2022-10-24T19:44:00.382Z,97048.00
2022-10-24T19:46:27.231Z,97041.00
2022-10-24T19:48:55.048Z,97041.00
2022-10-24T19:51:23.130Z,97032.00
2022-10-24T19:53:51.336Z,97025.00
2022-10-24T19:56:26.127Z,97024.00
2022-10-24T19:58:54.916Z,97018.00
2022-10-24T20:01:25.890Z,97017.00
2022-10-24T20:03:54.891Z,97021.00
2022-10-24T20:06:22.841Z,97018.00
2022-10-24T20:08:50.317Z,97022.00
2022-10-24T20:11:20.154Z,97015.00
2022-10-24T20:13:47.730Z,97027.00
2022-10-24T20:16:14.905Z,97024.00
2022-10-24T20:18:43.348Z,97025.00
2022-10-24T20:21:13.318Z,97032.00
2022-10-24T20:23:41.517Z,97028.00
2022-10-24T20:26:24.557Z,97027.00
2022-10-24T20:28:53.897Z,97019.00
2022-10-24T20:31:30.049Z,97025.00
2022-10-24T20:34:06.823Z,97027.00
2022-10-24T20:36:37.207Z,97038.00
2022-10-24T20:39:06.262Z,97038.00
2022-10-24T20:41:33.981Z,97022.00
2022-10-24T20:44:02.072Z,97030.00
2022-10-24T20:46:28.985Z,97034.00
2022-10-24T20:48:55.748Z,97030.00
2022-10-24T20:51:22.810Z,97034.00
2022-10-24T20:54:14.613Z,97030.00
2022-10-24T20:56:48.014Z,97036.00
2022-10-24T20:59:27.252Z,97037.00
2022-10-24T21:02:05.232Z,97041.00
2022-10-24T21:04:48.911Z,97043.00
2022-10-24T21:07:16.049Z,97046.00
2022-10-24T21:09:47.031Z,97049.00
2022-10-24T21:12:24.077Z,97052.00
2022-10-24T21:14:59.544Z,97061.00
2022-10-24T21:17:29.644Z,97049.00
2022-10-24T21:20:05.690Z,97055.00
2022-10-24T21:22:38.367Z,97068.00
2022-10-24T21:25:05.964Z,97069.00
2022-10-24T21:27:35.946Z,97060.00
2022-10-24T21:30:14.743Z,97066.00
2022-10-24T21:32:47.177Z,97071.00
2022-10-24T21:35:30.210Z,97066.00
2022-10-24T21:37:59.775Z,97071.00
2022-10-24T21:40:32.253Z,97067.00
2022-10-24T21:43:05.784Z,97067.00
2022-10-24T21:45:41.122Z,97072.00
2022-10-24T21:48:15.952Z,97076.00
2022-10-24T21:50:50.655Z,97068.00
2022-10-24T21:53:17.807Z,97076.00
2022-10-24T21:55:45.140Z,97069.00
2022-10-24T21:58:12.287Z,97075.00
2022-10-24T22:00:47.451Z,97080.00
2022-10-24T22:03:17.477Z,97087.00
2022-10-24T22:05:55.881Z,97076.00
2022-10-24T22:08:28.537Z,97083.00
2022-10-24T22:11:13.607Z,97074.00
2022-10-24T22:13:43.738Z,97083.00
2022-10-24T22:16:13.752Z,97086.00
2022-10-24T22:18:41.109Z,97083.00
2022-10-24T22:21:23.954Z,97081.00
2022-10-24T22:23:52.216Z,97084.00
2022-10-24T22:26:19.468Z,97088.00
2022-10-24T22:28:53.057Z,97097.00
2022-10-24T22:31:23.677Z,97092.00
2022-10-24T22:33:52.461Z,97099.00
2022-10-24T22:36:56.107Z,97098.00
2022-10-24T22:39:28.786Z,97107.00
2022-10-24T22:42:06.451Z,97099.00
2022-10-24T22:44:36.809Z,97099.00
2022-10-24T22:47:33.829Z,97104.00
2022-10-24T22:50:31.849Z,97110.00
2022-10-24T22:53:03.485Z,97120.00
2022-10-24T22:55:35.878Z,97119.00
2022-10-24T22:58:10.769Z,97127.00
2022-10-24T23:00:40.406Z,97127.00
2022-10-24T23:03:45.833Z,97126.00
2022-10-24T23:06:25.713Z,97126.00
2022-10-24T23:08:54.815Z,97135.00
2022-10-24T23:11:22.465Z,97140.00
2022-10-24T23:13:50.027Z,97137.00
2022-10-24T23:16:41.626Z,97145.00
2022-10-24T23:19:39.483Z,97145.00
2022-10-24T23:22:36.182Z,97146.00
2022-10-24T23:25:12.184Z,97147.00
2022-10-24T23:27:43.982Z,97156.00
2022-10-24T23:30:24.663Z,97160.00
2022-10-24T23:32:52.524Z,97160.00
2022-10-24T23:35:24.796Z,97149.00
2022-10-24T23:38:02.395Z,97164.00
2022-10-24T23:40:30.059Z,97171.00
2022-10-24T23:42:57.930Z,97170.00
2022-10-24T23:45:44.080Z,97170.00
2022-10-24T23:48:24.793Z,97172.00
2022-10-24T23:50:57.531Z,97177.00
2022-10-24T23:53:52.491Z,97177.00
2022-10-24T23:56:37.897Z,97170.00
2022-10-24T23:59:11.786Z,97167.00
